Time;durP1;ratioP1;P1;durP2;ratioP2;P2;SDS_P1;SDS_P2;PMS_P1;PMS_P2;Temp;Humidity;BMP_temperature;BMP_pressure;BME280_temperature;BME280_humidity;BME280_pressure;Samples;Min_cycle;Max_cycle;Signal;HPM_P1;HPM_P2
2022/06/30 00:00:34;;;;;;;5.85;3.42;;;;;;;21.08;83.32;94514.66;5051633;28;20205;-58
2022/06/30 00:02:59;;;;;;;6.93;4.22;;;;;;;21.08;83.42;94512.09;5051858;28;20211;-60
2022/06/30 00:05:25;;;;;;;6.93;3.78;;;;;;;21.02;84.05;94496.56;5051457;28;20296;-62
2022/06/30 00:07:50;;;;;;;5.05;3.45;;;;;;;21.02;82.97;94506.91;5033758;28;20284;-61
2022/06/30 00:10:16;;;;;;;9.02;4.40;;;;;;;20.98;83.46;94505.66;5051323;28;20622;-63
2022/06/30 00:12:41;;;;;;;4.25;3.85;;;;;;;21.05;83.41;94499.53;5051396;28;20244;-59
2022/06/30 00:15:08;;;;;;;5.38;4.05;;;;;;;21.02;83.62;94502.53;5051233;28;20232;-61
2022/06/30 00:17:33;;;;;;;6.15;4.30;;;;;;;20.90;86.39;94462.72;5051728;28;20217;-62
2022/06/30 00:19:59;;;;;;;4.28;3.88;;;;;;;20.86;86.51;94469.28;5054624;28;20200;-63
2022/06/30 00:22:25;;;;;;;7.63;3.60;;;;;;;21.00;84.94;94496.72;5054561;28;20194;-58
2022/06/30 00:24:51;;;;;;;7.55;4.15;;;;;;;20.99;86.72;94471.84;5054914;28;20202;-60
2022/06/30 00:27:17;;;;;;;6.95;3.72;;;;;;;21.10;85.56;94484.25;5037309;28;20193;-65
2022/06/30 00:29:43;;;;;;;3.92;3.63;;;;;;;21.10;84.55;94494.59;5055018;28;20581;-64
2022/06/30 00:32:08;;;;;;;4.25;3.65;;;;;;;21.13;83.52;94514.84;5055131;28;20580;-62
2022/06/30 00:34:34;;;;;;;5.50;3.70;;;;;;;21.05;83.00;94512.47;5054890;28;20221;-65
2022/06/30 00:37:00;;;;;;;7.25;3.90;;;;;;;21.09;83.06;94507.72;5054688;28;20582;-60
2022/06/30 00:39:26;;;;;;;8.63;3.80;;;;;;;21.09;82.53;94513.66;5054043;28;20175;-62
2022/06/30 00:41:52;;;;;;;5.07;3.47;;;;;;;20.90;84.14;94491.94;5054677;28;20655;-62
2022/06/30 00:44:18;;;;;;;5.63;4.07;;;;;;;20.99;84.89;94477.03;5054626;28;20173;-63
2022/06/30 00:46:43;;;;;;;8.10;3.75;;;;;;;20.79;85.77;94469.25;5054761;28;20182;-64
2022/06/30 00:49:09;;;;;;;4.88;3.90;;;;;;;20.63;89.17;94430.06;5054803;28;20674;-63
2022/06/30 00:51:35;;;;;;;4.63;4.10;;;;;;;20.68;89.33;94425.13;5054491;28;20240;-64
2022/06/30 00:54:03;;;;;;;5.43;4.00;;;;;;;20.57;88.69;94441.97;5054968;28;20205;-64
2022/06/30 00:56:29;;;;;;;9.27;4.60;;;;;;;20.56;88.65;94447.34;5036351;28;20204;-64
2022/06/30 00:59:04;;;;;;;9.60;3.85;;;;;;;20.59;89.76;94429.66;5054525;28;20592;-59
2022/06/30 01:01:31;;;;;;;5.07;4.15;;;;;;;20.80;88.50;94467.47;5054398;28;20193;-63
2022/06/30 01:03:58;;;;;;;9.63;4.25;;;;;;;20.77;89.82;94447.19;5061542;22;20214;-63
2022/06/30 01:06:25;;;;;;;7.50;3.80;;;;;;;20.65;91.58;94422.91;5053980;28;20291;-64
2022/06/30 01:08:50;;;;;;;4.75;4.28;;;;;;;20.71;91.40;94435.03;5054416;28;20192;-63
2022/06/30 01:14:01;;;;;;;6.63;4.18;;;;;;;20.33;92.80;94413.31;5054458;28;20219;-64
2022/06/30 01:16:27;;;;;;;5.40;3.97;;;;;;;20.20;94.74;94421.81;5053771;28;20796;-65
2022/06/30 01:18:53;;;;;;;7.38;4.95;;;;;;;20.24;95.36;94420.44;5054190;28;20191;-63
2022/06/30 01:21:18;;;;;;;7.72;4.82;;;;;;;20.34;96.26;94422.66;5053911;28;20201;-65
2022/06/30 01:23:44;;;;;;;11.98;5.90;;;;;;;20.29;97.88;94425.81;5054300;28;20236;-61
2022/06/30 01:26:10;;;;;;;7.63;4.53;;;;;;;20.54;96.03;94436.41;5036050;28;20202;-60
2022/06/30 01:28:35;;;;;;;5.43;4.15;;;;;;;20.46;97.41;94426.28;5054062;28;20182;-62
2022/06/30 01:31:01;;;;;;;6.57;5.03;;;;;;;20.56;95.33;94442.19;5053842;28;20232;-63
2022/06/30 01:33:27;;;;;;;6.28;4.80;;;;;;;20.33;97.55;94419.28;5054088;28;20189;-61
2022/06/30 01:35:54;;;;;;;6.90;4.32;;;;;;;20.27;98.10;94422.63;5053824;28;20197;-61
2022/06/30 01:38:20;;;;;;;6.57;5.15;;;;;;;20.31;98.45;94425.63;5054037;28;20209;-59
2022/06/30 01:40:46;;;;;;;7.05;4.65;;;;;;;20.34;97.83;94430.41;5053549;28;20197;-62
2022/06/30 01:43:13;;;;;;;8.10;4.95;;;;;;;20.38;98.43;94416.13;5053942;28;20565;-60
2022/06/30 01:45:40;;;;;;;5.85;4.78;;;;;;;20.23;99.04;94424.03;5053557;28;20193;-59
2022/06/30 01:48:06;;;;;;;6.07;5.00;;;;;;;20.27;100.00;94425.22;5054048;28;20186;-60
2022/06/30 01:50:33;;;;;;;9.30;4.63;;;;;;;20.25;99.98;94410.91;5053487;28;20196;-63
2022/06/30 01:52:59;;;;;;;7.22;5.10;;;;;;;20.28;99.23;94431.97;5053242;28;20224;-61
2022/06/30 01:55:25;;;;;;;9.10;4.97;;;;;;;20.54;97.29;94436.41;5035434;28;20215;-64
2022/06/30 01:57:50;;;;;;;5.72;5.00;;;;;;;20.36;99.40;94429.22;5053653;28;20209;-64
2022/06/30 02:00:18;;;;;;;6.00;5.35;;;;;;;20.40;99.04;94435.56;5053257;28;20220;-64
2022/06/30 02:02:44;;;;;;;6.43;4.90;;;;;;;20.18;100.00;94420.41;5035795;28;20256;-60
2022/06/30 02:05:11;;;;;;;5.35;4.82;;;;;;;20.18;100.00;94431.50;5053441;28;20259;-64
2022/06/30 02:07:37;;;;;;;7.00;5.28;;;;;;;20.23;100.00;94438.69;5053349;28;20220;-63
2022/06/30 02:10:11;;;;;;;7.78;5.15;;;;;;;20.31;100.00;94449.66;5052952;28;20202;-59
2022/06/30 02:12:46;;;;;;;8.27;5.28;;;;;;;20.35;100.00;94442.31;5053326;28;20223;-64
2022/06/30 02:15:36;;;;;;;5.85;5.07;;;;;;;20.52;99.95;94451.31;5053274;28;20201;-59
2022/06/30 02:18:08;;;;;;;6.90;4.93;;;;;;;20.56;98.41;94455.88;5059585;22;20657;-60
2022/06/30 02:20:34;;;;;;;9.63;5.28;;;;;;;20.47;97.85;94461.41;5052796;28;20276;-61
2022/06/30 02:23:01;;;;;;;8.77;5.13;;;;;;;20.17;98.54;94449.78;5052985;28;20207;-62
2022/06/30 02:25:29;;;;;;;6.38;4.78;;;;;;;20.08;99.09;94447.34;5052539;28;20321;-61
2022/06/30 02:27:55;;;;;;;9.18;5.38;;;;;;;19.93;100.00;94438.16;5066630;22;20233;-64
2022/06/30 02:30:21;;;;;;;11.40;5.93;;;;;;;20.12;100.00;94455.50;5034928;28;20231;-63
2022/06/30 02:32:47;;;;;;;9.23;5.07;;;;;;;20.07;99.88;94461.28;5052991;28;20190;-64
2022/06/30 02:35:13;;;;;;;7.25;4.90;;;;;;;20.23;98.85;94474.84;5052466;28;20194;-62
2022/06/30 02:37:38;;;;;;;13.52;5.68;;;;;;;20.09;97.48;94479.13;5052710;28;20255;-63
2022/06/30 02:40:04;;;;;;;10.32;6.13;;;;;;;20.13;97.84;94484.72;5051898;28;20190;-62
2022/06/30 02:42:30;;;;;;;5.78;4.85;;;;;;;20.04;98.73;94463.41;5034513;28;20268;-63
2022/06/30 02:44:55;;;;;;;5.93;4.85;;;;;;;20.10;99.22;94458.28;5052517;28;20745;-62
2022/06/30 02:47:21;;;;;;;10.55;5.80;;;;;;;19.96;99.07;94453.25;5052612;28;20178;-59
2022/06/30 02:49:46;;;;;;;8.75;5.60;;;;;;;20.01;100.00;94450.91;5052275;28;20595;-62
2022/06/30 02:52:12;;;;;;;11.35;6.20;;;;;;;19.86;100.00;94452.81;5034516;28;20668;-58
2022/06/30 02:54:37;;;;;;;7.00;5.53;;;;;;;19.96;100.00;94459.22;5052150;28;20675;-64
2022/06/30 02:57:03;;;;;;;11.43;5.90;;;;;;;19.89;100.00;94463.56;5052219;28;20221;-61
2022/06/30 02:59:28;;;;;;;6.15;4.88;;;;;;;20.01;100.00;94480.09;5052327;28;20194;-64
2022/06/30 03:01:54;;;;;;;10.25;4.88;;;;;;;19.84;100.00;94458.16;5052538;28;20193;-61
2022/06/30 03:04:21;;;;;;;7.03;5.05;;;;;;;19.97;100.00;94473.72;5052117;28;20177;-61
2022/06/30 03:06:46;;;;;;;6.80;4.93;;;;;;;19.82;99.99;94473.03;5052197;28;20200;-60
2022/06/30 03:09:12;;;;;;;7.30;5.32;;;;;;;20.06;98.44;94476.94;5052034;28;20640;-61
2022/06/30 03:11:39;;;;;;;7.43;4.97;;;;;;;19.99;99.00;94469.19;5052000;28;20561;-62
2022/06/30 03:14:05;;;;;;;8.80;5.10;;;;;;;19.88;100.00;94456.78;5058684;22;20683;-59
2022/06/30 03:16:30;;;;;;;9.90;5.55;;;;;;;19.76;98.20;94473.81;5051883;28;20190;-64
2022/06/30 03:18:56;;;;;;;8.70;5.60;;;;;;;19.74;98.48;94474.97;5052238;28;20262;-59
2022/06/30 03:21:21;;;;;;;6.10;5.25;;;;;;;19.92;99.07;94464.94;5052052;28;20213;-64
2022/06/30 03:23:47;;;;;;;9.27;4.82;;;;;;;19.87;98.19;94475.88;5052201;28;20193;-64
2022/06/30 03:26:13;;;;;;;7.30;4.82;;;;;;;19.75;98.85;94459.31;5051812;28;20565;-64
2022/06/30 03:28:39;;;;;;;8.55;5.55;;;;;;;19.79;99.01;94464.91;5052110;28;20219;-61
2022/06/30 03:31:04;;;;;;;10.43;4.63;;;;;;;19.94;100.00;94453.44;5051722;28;20729;-65
2022/06/30 03:33:29;;;;;;;9.60;5.15;;;;;;;20.24;100.00;94464.31;5051526;28;20243;-63
2022/06/30 03:36:02;;;;;;;8.20;4.60;;;;;;;20.67;100.00;94470.03;5051625;28;20193;-63
2022/06/30 03:38:27;;;;;;;6.07;4.60;;;;;;;21.09;100.00;94466.34;5051851;28;20225;-60
2022/06/30 03:40:53;;;;;;;9.18;5.45;;;;;;;21.50;100.00;94475.47;5033523;28;20244;-66
2022/06/30 03:43:18;;;;;;;7.97;5.20;;;;;;;21.93;100.00;94487.97;5051922;28;20197;-65
2022/06/30 03:45:44;;;;;;;6.32;4.78;;;;;;;22.28;100.00;94497.03;5051849;28;20208;-64
2022/06/30 03:48:09;;;;;;;6.13;4.75;;;;;;;22.56;100.00;94521.63;5058624;22;20224;-61
2022/06/30 03:50:35;;;;;;;8.43;5.50;;;;;;;22.63;100.00;94576.06;5051379;28;20235;-60
2022/06/30 03:53:01;;;;;;;5.70;5.10;;;;;;;22.16;100.00;94537.53;5054278;28;20268;-65
2022/06/30 03:55:27;;;;;;;6.03;4.93;;;;;;;22.06;100.00;94504.25;5055422;28;20280;-67
2022/06/30 03:57:53;;;;;;;15.27;4.97;;;;;;;21.95;100.00;94550.69;5055415;28;20205;-64
2022/06/30 04:00:19;;;;;;;8.13;5.00;;;;;;;21.55;100.00;94620.53;5055366;28;20197;-64
2022/06/30 04:02:44;;;;;;;4.75;4.20;;;;;;;21.15;100.00;94499.94;5055599;28;20209;-65
2022/06/30 04:05:10;;;;;;;6.22;4.45;;;;;;;20.79;100.00;94543.38;5055423;28;20201;-63
2022/06/30 04:07:40;;;;;;;6.45;5.13;;;;;;;20.79;100.00;94499.47;5055699;28;20351;-64
2022/06/30 04:10:06;;;;;;;7.72;5.00;;;;;;;20.82;100.00;94499.88;5037199;28;20779;-63
2022/06/30 04:12:32;;;;;;;14.63;5.07;;;;;;;21.01;100.00;94511.22;5055632;28;20243;-63
2022/06/30 04:14:57;;;;;;;5.55;4.57;;;;;;;21.13;100.00;94551.06;5055007;28;20193;-64
2022/06/30 04:17:23;;;;;;;8.68;5.07;;;;;;;21.25;100.00;94507.31;5055656;28;20584;-61
2022/06/30 04:19:48;;;;;;;6.80;4.90;;;;;;;21.49;100.00;94543.72;5055035;28;20194;-65
2022/06/30 04:22:13;;;;;;;5.88;4.50;;;;;;;21.64;100.00;94522.81;5055011;28;20185;-65
2022/06/30 04:24:39;;;;;;;7.38;5.10;;;;;;;21.51;100.00;94575.38;5054721;28;20687;-63
2022/06/30 04:27:05;;;;;;;6.25;4.85;;;;;;;21.35;100.00;94543.94;5055259;28;20193;-64
2022/06/30 04:29:30;;;;;;;9.38;5.07;;;;;;;21.32;100.00;94524.44;5054949;28;20267;-63
2022/06/30 04:34:40;;;;;;;7.95;4.38;;;;;;;20.98;100.00;94493.53;5054766;28;20254;-60
2022/06/30 04:37:05;;;;;;;9.25;5.03;;;;;;;21.00;100.00;94499.31;5054733;28;20206;-61
2022/06/30 04:39:30;;;;;;;9.07;5.22;;;;;;;20.88;100.00;94519.78;5036458;28;20201;-62
2022/06/30 04:41:56;;;;;;;7.40;4.80;;;;;;;20.89;100.00;94538.66;5036751;28;20716;-62
2022/06/30 04:44:21;;;;;;;7.22;5.00;;;;;;;20.80;100.00;94539.84;5054424;28;20265;-60
2022/06/30 04:46:46;;;;;;;6.75;4.90;;;;;;;20.73;100.00;94467.44;5054527;28;20707;-62
2022/06/30 04:49:20;;;;;;;6.07;4.80;;;;;;;20.81;100.00;94520.72;5054304;28;20205;-61
2022/06/30 04:51:46;;;;;;;7.70;5.20;;;;;;;20.85;100.00;94496.09;5054696;28;20551;-59
2022/06/30 04:54:11;;;;;;;7.00;5.25;;;;;;;21.02;100.00;94507.69;5054747;28;20186;-63
2022/06/30 04:56:37;;;;;;;5.68;5.18;;;;;;;21.01;100.00;94547.41;5036210;28;20181;-62
2022/06/30 04:59:02;;;;;;;5.38;4.88;;;;;;;21.13;100.00;94472.72;5054576;28;20185;-63
2022/06/30 05:01:27;;;;;;;5.97;4.75;;;;;;;21.52;100.00;94512.28;5054296;28;20285;-63
2022/06/30 05:03:53;;;;;;;11.38;5.63;;;;;;;21.61;100.00;94542.13;5053208;28;20269;-63
2022/06/30 05:06:18;;;;;;;7.25;4.70;;;;;;;21.64;100.00;94572.00;5054095;28;20201;-63
2022/06/30 05:08:44;;;;;;;9.60;5.63;;;;;;;21.52;100.00;94555.47;5054128;28;20185;-58
2022/06/30 05:11:09;;;;;;;6.05;5.40;;;;;;;21.60;100.00;94516.47;5053808;28;20281;-62
2022/06/30 05:13:35;;;;;;;8.52;5.75;;;;;;;21.52;100.00;94511.50;5054175;28;20696;-61
2022/06/30 05:16:02;;;;;;;12.27;5.55;;;;;;;21.42;100.00;94530.00;5053936;28;20197;-63
2022/06/30 05:18:28;;;;;;;10.32;5.70;;;;;;;21.45;100.00;94547.69;5053689;28;20733;-63
2022/06/30 05:20:53;;;;;;;8.85;5.93;;;;;;;21.26;100.00;94511.50;5053848;28;20197;-60
2022/06/30 05:23:19;;;;;;;9.15;6.25;;;;;;;21.26;100.00;94522.63;5053571;28;20182;-61
2022/06/30 05:28:28;;;;;;;12.13;6.10;;;;;;;21.16;100.00;94524.81;5053926;28;20563;-64
2022/06/30 05:30:56;;;;;;;8.30;5.70;;;;;;;21.29;100.00;94550.69;5053619;28;20194;-62
2022/06/30 05:33:22;;;;;;;8.77;5.40;;;;;;;21.15;100.00;94502.53;5053120;28;20230;-63
2022/06/30 05:35:49;;;;;;;9.63;5.53;;;;;;;21.37;100.00;94496.16;5053378;28;20233;-63
2022/06/30 05:38:15;;;;;;;8.65;5.57;;;;;;;21.38;100.00;94588.31;5051483;28;20209;-62
2022/06/30 05:40:40;;;;;;;8.52;5.57;;;;;;;21.19;100.00;94594.22;5060115;22;20230;-61
2022/06/30 05:43:07;;;;;;;12.38;5.50;;;;;;;21.40;100.00;94495.78;5053387;28;20224;-64
2022/06/30 05:45:40;;;;;;;8.45;5.22;;;;;;;21.65;100.00;94496.75;5053147;28;20297;-64
2022/06/30 05:48:06;;;;;;;7.90;5.43;;;;;;;21.83;100.00;94532.41;5053330;28;20626;-62
2022/06/30 05:50:31;;;;;;;8.07;5.32;;;;;;;22.10;100.00;94597.91;5060262;22;20229;-63
2022/06/30 05:52:57;;;;;;;7.65;5.55;;;;;;;21.76;100.00;94614.41;5053158;28;20184;-62
2022/06/30 05:55:22;;;;;;;7.47;5.10;;;;;;;21.77;100.00;94534.97;5035336;28;20201;-62
2022/06/30 05:57:54;;;;;;;5.85;5.25;;;;;;;21.67;100.00;94610.44;5053056;28;20213;-62
2022/06/30 06:00:21;;;;;;;8.82;5.47;;;;;;;21.67;100.00;94541.34;5052267;28;20229;-61
2022/06/30 06:02:47;;;;;;;9.68;4.93;;;;;;;21.67;100.00;94556.09;5052358;28;20213;-59
2022/06/30 06:05:13;;;;;;;6.55;5.10;;;;;;;21.73;100.00;94588.94;5052893;28;20683;-59
2022/06/30 06:07:38;;;;;;;6.60;4.40;;;;;;;21.75;100.00;94556.66;5052703;28;20198;-59
2022/06/30 06:10:05;;;;;;;9.23;4.97;;;;;;;21.84;100.00;94539.16;5052794;28;20190;-59
2022/06/30 06:12:30;;;;;;;7.25;5.25;;;;;;;22.08;100.00;94542.94;5052954;28;20181;-60
2022/06/30 06:14:55;;;;;;;4.68;4.28;;;;;;;22.37;100.00;94560.56;5059678;22;20217;-60
2022/06/30 06:17:21;;;;;;;9.27;5.43;;;;;;;22.50;100.00;94669.38;5052528;28;20201;-61
2022/06/30 06:19:46;;;;;;;7.45;4.90;;;;;;;22.47;100.00;94629.13;5053044;28;20220;-63
2022/06/30 06:22:12;;;;;;;9.52;5.82;;;;;;;22.47;100.00;94657.63;5052767;28;20165;-63
2022/06/30 06:24:37;;;;;;;6.85;5.60;;;;;;;22.30;100.00;94646.06;5052872;28;20213;-63
2022/06/30 06:27:03;;;;;;;9.02;6.20;;;;;;;22.13;100.00;94621.59;5052689;28;20165;-63
2022/06/30 06:29:29;;;;;;;7.18;5.85;;;;;;;21.91;100.00;94571.03;5052603;28;20682;-63
2022/06/30 06:31:55;;;;;;;8.05;5.13;;;;;;;22.18;100.00;94520.00;5052647;28;20173;-63
2022/06/30 06:34:20;;;;;;;9.55;5.40;;;;;;;22.59;100.00;94551.56;5052080;28;20182;-61
2022/06/30 06:36:46;;;;;;;12.55;6.20;;;;;;;22.76;100.00;94596.75;5052157;28;20173;-62
2022/06/30 06:39:11;;;;;;;11.38;6.38;;;;;;;23.00;100.00;94639.34;5052258;28;20173;-61
2022/06/30 06:41:37;;;;;;;6.13;5.53;;;;;;;23.10;100.00;94624.94;5052221;28;20808;-61
2022/06/30 06:44:02;;;;;;;7.47;5.95;;;;;;;23.35;100.00;94623.22;5052287;28;20212;-61
2022/06/30 06:46:28;;;;;;;8.18;5.47;;;;;;;23.51;100.00;94605.56;5052153;28;20765;-59
2022/06/30 06:49:06;;;;;;;9.98;5.70;;;;;;;23.61;100.00;94579.94;5052196;28;20213;-64
2022/06/30 06:51:32;;;;;;;8.73;5.55;;;;;;;23.92;100.00;94598.84;5052143;28;20678;-64
2022/06/30 06:53:59;;;;;;;7.25;5.80;;;;;;;24.10;100.00;94634.50;5051762;28;20193;-63
2022/06/30 06:56:25;;;;;;;8.15;6.53;;;;;;;23.93;96.82;94682.78;5051887;28;20658;-64
2022/06/30 06:58:51;;;;;;;11.48;5.78;;;;;;;24.11;98.42;94651.69;5051893;28;20209;-62
2022/06/30 07:01:16;;;;;;;6.70;6.00;;;;;;;24.04;96.21;94676.91;5051972;28;20259;-65
2022/06/30 07:03:42;;;;;;;7.97;6.63;;;;;;;24.04;96.56;94669.91;5051918;28;20614;-63
2022/06/30 07:06:08;;;;;;;9.45;6.03;;;;;;;24.16;100.00;94607.66;5051839;28;20630;-60
2022/06/30 07:08:34;;;;;;;12.35;7.10;;;;;;;24.24;97.50;94648.19;5051861;28;20170;-63
2022/06/30 07:10:59;;;;;;;11.52;7.00;;;;;;;24.31;94.82;94687.91;5051793;28;20756;-60
2022/06/30 07:13:26;;;;;;;8.25;6.07;;;;;;;24.46;97.88;94626.00;5051689;28;20272;-60
2022/06/30 07:15:52;;;;;;;8.40;6.57;;;;;;;24.47;94.13;94697.75;5033747;28;20699;-64
2022/06/30 07:18:18;;;;;;;7.40;6.22;;;;;;;24.58;95.73;94656.28;5051442;28;20225;-62
2022/06/30 07:20:44;;;;;;;12.77;6.97;;;;;;;24.50;98.00;94607.16;5051428;28;20215;-59
2022/06/30 07:23:10;;;;;;;15.75;7.63;;;;;;;24.47;96.07;94632.75;5051635;28;20256;-62
2022/06/30 07:25:35;;;;;;;14.85;7.75;;;;;;;24.38;97.77;94605.47;5051386;28;20582;-62
2022/06/30 07:28:02;;;;;;;12.27;7.10;;;;;;;24.29;97.40;94614.56;5051060;28;20219;-62
2022/06/30 07:30:28;;;;;;;13.93;7.82;;;;;;;24.28;97.84;94611.16;5051769;28;20296;-62
2022/06/30 07:32:53;;;;;;;29.40;17.50;;;;;;;24.28;97.51;94607.78;5051615;28;20200;-64
2022/06/30 07:35:19;;;;;;;20.58;8.45;;;;;;;24.27;99.72;94590.56;5051396;28;20205;-64
2022/06/30 07:37:45;;;;;;;15.88;7.95;;;;;;;24.32;93.74;94682.47;5051286;28;20205;-60
2022/06/30 07:40:12;;;;;;;15.60;8.27;;;;;;;24.30;100.00;94543.38;5051324;28;20216;-60
2022/06/30 07:42:38;;;;;;;17.38;8.55;;;;;;;24.31;97.93;94608.13;5051455;28;20196;-62
2022/06/30 07:45:05;;;;;;;14.50;7.90;;;;;;;24.38;98.87;94588.06;5051413;28;20206;-64
2022/06/30 07:47:30;;;;;;;17.85;9.45;;;;;;;24.42;98.72;94593.63;5051250;28;20573;-65
2022/06/30 07:49:56;;;;;;;11.88;7.25;;;;;;;24.58;100.00;94541.88;5051652;28;20683;-65
2022/06/30 07:52:22;;;;;;;12.48;8.05;;;;;;;24.74;100.00;94530.91;5051606;28;20181;-64
2022/06/30 07:54:47;;;;;;;13.65;7.50;;;;;;;24.90;93.54;94688.16;5051561;28;20259;-61
2022/06/30 07:57:13;;;;;;;19.20;9.63;;;;;;;24.88;95.95;94638.97;5051022;28;20233;-62
2022/06/30 07:59:39;;;;;;;14.95;8.70;;;;;;;24.72;92.62;94686.31;5051049;28;20205;-65
2022/06/30 08:02:06;;;;;;;14.70;8.10;;;;;;;24.78;93.45;94664.69;5051333;28;20184;-64
2022/06/30 08:04:33;;;;;;;14.38;8.52;;;;;;;24.64;91.34;94701.41;5051286;28;20232;-64
2022/06/30 08:07:01;;;;;;;14.60;7.88;;;;;;;24.74;98.84;94561.31;5033220;28;20228;-63
2022/06/30 08:09:27;;;;;;;13.70;8.35;;;;;;;24.81;99.19;94552.41;5051308;28;20201;-64
2022/06/30 08:11:54;;;;;;;13.98;8.52;;;;;;;24.93;92.87;94664.31;5051389;28;20704;-65
2022/06/30 08:14:21;;;;;;;18.83;10.25;;;;;;;24.91;93.01;94667.13;5050964;28;20197;-61
2022/06/30 08:16:46;;;;;;;12.38;7.28;;;;;;;25.01;99.99;94535.75;5051062;28;20178;-63
2022/06/30 08:19:12;;;;;;;14.43;7.78;;;;;;;25.14;98.64;94572.00;5051363;28;20189;-63
2022/06/30 08:21:37;;;;;;;22.65;9.75;;;;;;;25.27;95.84;94626.47;5051116;28;20523;-62
2022/06/30 08:24:03;;;;;;;22.45;9.30;;;;;;;25.24;90.50;94707.59;5051188;28;20178;-62
2022/06/30 08:26:28;;;;;;;14.98;9.23;;;;;;;25.26;94.43;94622.28;5050977;28;20717;-63
2022/06/30 08:28:54;;;;;;;21.25;8.75;;;;;;;25.30;96.96;94574.75;5051235;28;20190;-62
2022/06/30 08:31:19;;;;;;;25.23;10.45;;;;;;;25.43;92.17;94672.75;5051054;28;20201;-62
2022/06/30 08:33:45;;;;;;;14.07;8.98;;;;;;;25.44;94.23;94637.88;5051098;28;20535;-61
2022/06/30 08:36:10;;;;;;;19.95;10.70;;;;;;;25.47;93.90;94638.22;5050782;28;20208;-61
2022/06/30 08:38:36;;;;;;;15.63;9.18;;;;;;;25.47;88.05;94734.56;5051352;28;20205;-62
2022/06/30 08:43:46;;;;;;;15.38;8.68;;;;;;;25.52;82.55;94754.75;5054672;28;20189;-60
2022/06/30 08:46:12;;;;;;;17.35;8.15;;;;;;;25.45;76.42;94747.00;5036453;28;20201;-59
2022/06/30 08:48:38;;;;;;;14.35;7.90;;;;;;;25.50;75.99;94749.75;5054478;28;20209;-59
2022/06/30 08:51:06;;;;;;;12.82;8.00;;;;;;;25.60;79.83;94671.09;5054434;28;20289;-60
2022/06/30 08:53:50;;;;;;;12.65;7.40;;;;;;;25.68;80.90;94650.75;5036622;28;20565;-64
2022/06/30 08:56:17;;;;;;;9.02;6.72;;;;;;;25.71;80.17;94658.09;5054347;28;20543;-64
2022/06/30 08:58:44;;;;;;;11.85;7.15;;;;;;;25.92;67.81;94860.06;5054074;28;20292;-65
2022/06/30 09:01:10;;;;;;;14.95;7.40;;;;;;;25.93;68.11;94812.16;5054275;28;20223;-65
2022/06/30 09:03:37;;;;;;;14.75;7.22;;;;;;;25.93;70.40;94710.53;5060977;22;20239;-65
2022/06/30 09:06:04;;;;;;;12.98;6.70;;;;;;;26.06;69.34;94741.59;5054071;28;20198;-66
2022/06/30 09:08:30;;;;;;;16.70;8.20;;;;;;;26.07;70.50;94703.34;5054449;28;20181;-60
2022/06/30 09:10:56;;;;;;;10.13;6.00;;;;;;;26.25;67.03;94771.84;5054514;28;20228;-62
2022/06/30 09:13:22;;;;;;;15.80;6.40;;;;;;;26.31;68.99;94721.41;5054322;28;20181;-66
2022/06/30 09:15:51;;;;;;;11.43;6.05;;;;;;;26.60;69.50;94704.84;5053867;28;20683;-64
2022/06/30 09:18:28;;;;;;;10.55;6.13;;;;;;;26.83;69.18;94716.34;5054251;28;20296;-66
2022/06/30 09:20:56;;;;;;;11.98;7.00;;;;;;;26.68;68.62;94718.59;5035754;28;20204;-66
2022/06/30 09:23:29;;;;;;;10.35;6.55;;;;;;;26.79;67.04;94743.91;5054229;28;20186;-67
2022/06/30 09:26:00;;;;;;;7.93;6.25;;;;;;;27.05;65.85;94766.97;5053750;28;20205;-64
2022/06/30 09:28:41;;;;;;;8.68;5.50;;;;;;;27.15;65.10;94777.63;5035958;28;20186;-66
2022/06/30 09:31:07;;;;;;;11.45;6.22;;;;;;;27.19;63.31;94787.34;5035579;28;20756;-60
2022/06/30 09:33:35;;;;;;;7.55;5.07;;;;;;;27.26;62.71;94800.31;5054139;28;20611;-60
2022/06/30 09:36:38;;;;;;;9.73;6.20;;;;;;;27.50;65.44;94727.94;5053396;28;20325;-64
2022/06/30 09:39:08;;;;;;;10.57;5.60;;;;;;;27.55;67.44;94665.34;4972540;28;20220;-63
2022/06/30 09:41:36;;;;;;;12.48;5.95;;;;;;;27.65;67.17;94695.06;4972692;28;20169;-65
2022/06/30 09:44:21;;;;;;;6.47;5.18;;;;;;;27.88;65.11;94730.75;5013668;28;20193;-64
2022/06/30 09:47:10;;;;;;;5.53;4.88;;;;;;;28.05;64.99;94727.19;5053528;28;20260;-63
2022/06/30 09:49:36;;;;;;;9.00;5.35;;;;;;;28.11;62.43;94796.06;5052983;28;20201;-63
2022/06/30 09:52:15;;;;;;;7.22;4.93;;;;;;;28.15;57.74;94889.50;5053403;28;20272;-64
2022/06/30 09:55:12;;;;;;;10.50;4.72;;;;;;;28.20;58.80;94821.59;5053128;28;20206;-63
2022/06/30 09:57:38;;;;;;;7.95;4.47;;;;;;;28.27;59.64;94792.69;5053000;28;20240;-64
2022/06/30 10:00:06;;;;;;;6.20;4.40;;;;;;;28.51;60.98;94756.69;5053047;28;20194;-65
2022/06/30 10:02:35;;;;;;;7.78;4.15;;;;;;;28.64;62.46;94723.22;5052656;28;20221;-63
2022/06/30 10:05:01;;;;;;;5.72;3.85;;;;;;;28.74;57.65;94853.44;5053026;28;20199;-64
2022/06/30 10:07:45;;;;;;;5.45;3.85;;;;;;;28.86;57.35;94833.22;5053455;28;20185;-63
2022/06/30 10:10:14;;;;;;;4.97;4.10;;;;;;;29.04;57.53;94815.44;5034770;28;20205;-63
2022/06/30 10:12:40;;;;;;;7.28;4.57;;;;;;;29.05;55.46;94865.97;5052944;28;20185;-63
2022/06/30 10:15:08;;;;;;;8.38;4.30;;;;;;;29.12;57.88;94784.63;5052638;28;20190;-62
2022/06/30 10:17:37;;;;;;;4.53;4.03;;;;;;;29.21;58.12;94773.50;5052863;28;20729;-64
2022/06/30 10:20:04;;;;;;;6.10;3.90;;;;;;;29.28;56.76;94789.06;5052605;28;20713;-63
2022/06/30 10:22:30;;;;;;;3.70;2.90;;;;;;;29.35;49.05;95005.31;5052948;28;20213;-64
2022/06/30 10:24:57;;;;;;;5.85;3.40;;;;;;;29.42;48.93;94966.66;5052536;28;20722;-63
2022/06/30 10:27:25;;;;;;;5.88;3.45;;;;;;;29.54;49.29;94954.28;5052558;28;20186;-59
2022/06/30 10:29:55;;;;;;;5.85;3.60;;;;;;;29.56;51.07;94868.31;5052502;28;20691;-63
2022/06/30 10:32:27;;;;;;;4.22;3.50;;;;;;;29.67;52.98;94817.63;5052760;28;20303;-59
2022/06/30 10:35:01;;;;;;;6.72;3.60;;;;;;;29.71;49.00;94912.31;5052355;28;20198;-60
2022/06/30 10:37:35;;;;;;;4.53;3.47;;;;;;;29.76;48.93;94894.84;5052501;28;20256;-59
2022/06/30 10:40:08;;;;;;;4.07;3.70;;;;;;;29.80;50.28;94856.63;5052305;28;20190;-62
2022/06/30 10:42:48;;;;;;;4.85;3.63;;;;;;;29.88;52.83;94760.22;5052438;28;20268;-63
2022/06/30 10:45:28;;;;;;;8.68;3.53;;;;;;;30.04;51.50;94814.41;5052279;28;20280;-62
2022/06/30 10:47:58;;;;;;;5.18;3.35;;;;;;;30.31;54.05;94745.19;5052567;28;20558;-62
2022/06/30 10:50:40;;;;;;;3.70;3.40;;;;;;;30.45;47.89;94898.59;5034008;28;20205;-60
2022/06/30 10:53:09;;;;;;;7.35;3.83;;;;;;;30.59;49.69;94846.47;5051937;28;20264;-62
2022/06/30 10:55:49;;;;;;;4.72;2.90;;;;;;;30.71;48.84;94862.06;5051821;28;20255;-61
2022/06/30 10:58:16;;;;;;;6.15;3.50;;;;;;;30.87;51.16;94779.78;5052353;28;20708;-59
2022/06/30 11:00:58;;;;;;;4.18;3.50;;;;;;;30.93;44.36;94973.94;5052108;28;20205;-62
2022/06/30 11:03:29;;;;;;;5.30;3.97;;;;;;;31.05;46.76;94866.09;5051299;28;20582;-62
2022/06/30 11:05:56;;;;;;;33.47;14.27;;;;;;;31.30;51.25;94746.16;5051784;28;20768;-61
2022/06/30 11:08:50;;;;;;;10.13;5.15;;;;;;;31.58;47.81;94857.25;5052629;28;20184;-62
2022/06/30 11:11:24;;;;;;;16.65;5.97;;;;;;;31.77;46.28;94880.25;5051804;28;20205;-64
2022/06/30 11:13:49;;;;;;;15.90;5.85;;;;;;;31.67;45.91;94887.28;5052101;28;20662;-62
2022/06/30 11:16:17;;;;;;;12.35;4.78;;;;;;;31.84;45.42;94893.16;5051739;28;20212;-61
2022/06/30 11:18:43;;;;;;;8.00;3.88;;;;;;;32.00;48.61;94779.88;5034033;28;20304;-61
2022/06/30 11:21:08;;;;;;;3.10;2.60;;;;;;;31.57;44.39;94897.75;5051759;28;20277;-64
2022/06/30 11:23:45;;;;;;;5.32;2.90;;;;;;;31.88;47.38;94802.97;5051791;28;20288;-62
2022/06/30 11:28:58;;;;;;;5.25;2.97;;;;;;;32.41;43.58;94901.84;5051904;28;20616;-61
2022/06/30 11:31:36;;;;;;;4.28;3.22;;;;;;;32.48;43.11;94901.66;5051307;28;20193;-62
2022/06/30 11:34:17;;;;;;;4.47;2.78;;;;;;;32.78;45.83;94814.78;5051632;28;20667;-61
2022/06/30 11:36:45;;;;;;;4.55;2.88;;;;;;;32.72;41.45;94952.81;5051734;28;20234;-62
2022/06/30 11:39:15;;;;;;;6.68;2.97;;;;;;;32.60;42.72;94878.50;5051527;28;20284;-62
2022/06/30 11:41:55;;;;;;;5.20;4.07;;;;;;;32.95;43.93;94839.78;5051636;28;20177;-62
2022/06/30 11:44:33;;;;;;;3.75;2.95;;;;;;;33.18;45.73;94801.59;5051443;28;20192;-62